sensor_id;sensor_type;location;lat;lon;timestamp;temperature;humidity
3628;DHT22;1830;49.000;12.074;2023-04-03T00:00:32;3.90;99.90
3628;DHT22;1830;49.000;12.074;2023-04-03T00:02:58;3.90;99.90
3628;DHT22;1830;49.000;12.074;2023-04-03T00:05:26;4.00;99.90
3628;DHT22;1830;49.000;12.074;2023-04-03T00:07:53;4.00;99.90
3628;DHT22;1830;49.000;12.074;2023-04-03T00:10:20;3.90;99.90
3628;DHT22;1830;49.000;12.074;2023-04-03T00:12:47;3.70;99.90
3628;DHT22;1830;49.000;12.074;2023-04-03T00:15:14;3.80;99.90
3628;DHT22;1830;49.000;12.074;2023-04-03T00:17:41;3.90;99.90
3628;DHT22;1830;49.000;12.074;2023-04-03T00:20:08;3.60;99.90
3628;DHT22;1830;49.000;12.074;2023-04-03T00:22:37;3.70;99.90
3628;DHT22;1830;49.000;12.074;2023-04-03T00:25:04;3.70;99.90
3628;DHT22;1830;49.000;12.074;2023-04-03T00:27:31;3.80;99.90
3628;DHT22;1830;49.000;12.074;2023-04-03T00:29:58;3.80;99.90
3628;DHT22;1830;49.000;12.074;2023-04-03T00:32:24;3.80;99.90
3628;DHT22;1830;49.000;12.074;2023-04-03T00:34:51;3.80;99.90
3628;DHT22;1830;49.000;12.074;2023-04-03T00:37:18;3.80;99.90
3628;DHT22;1830;49.000;12.074;2023-04-03T00:39:47;3.80;99.90
3628;DHT22;1830;49.000;12.074;2023-04-03T00:42:15;3.80;99.90
3628;DHT22;1830;49.000;12.074;2023-04-03T00:47:55;3.80;99.90
3628;DHT22;1830;49.000;12.074;2023-04-03T00:50:25;3.80;99.90
3628;DHT22;1830;49.000;12.074;2023-04-03T00:52:52;3.80;99.90
3628;DHT22;1830;49.000;12.074;2023-04-03T00:55:21;3.60;99.90
3628;DHT22;1830;49.000;12.074;2023-04-03T00:57:49;3.70;99.90
3628;DHT22;1830;49.000;12.074;2023-04-03T01:00:18;3.80;99.90
3628;DHT22;1830;49.000;12.074;2023-04-03T01:02:46;3.80;99.90
3628;DHT22;1830;49.000;12.074;2023-04-03T01:05:16;3.80;99.90
3628;DHT22;1830;49.000;12.074;2023-04-03T01:07:43;3.80;99.90
3628;DHT22;1830;49.000;12.074;2023-04-03T01:10:12;3.80;99.90
3628;DHT22;1830;49.000;12.074;2023-04-03T01:12:43;3.80;99.90
3628;DHT22;1830;49.000;12.074;2023-04-03T01:15:13;3.70;99.90
3628;DHT22;1830;49.000;12.074;2023-04-03T01:17:42;3.80;99.90
3628;DHT22;1830;49.000;12.074;2023-04-03T01:23:32;3.80;99.90
3628;DHT22;1830;49.000;12.074;2023-04-03T01:26:04;3.80;99.90
3628;DHT22;1830;49.000;12.074;2023-04-03T01:28:35;3.80;99.90
3628;DHT22;1830;49.000;12.074;2023-04-03T01:31:10;3.70;99.90
3628;DHT22;1830;49.000;12.074;2023-04-03T01:33:44;3.70;99.90
3628;DHT22;1830;49.000;12.074;2023-04-03T01:36:16;3.80;99.90
3628;DHT22;1830;49.000;12.074;2023-04-03T01:38:44;3.80;99.90
3628;DHT22;1830;49.000;12.074;2023-04-03T01:41:11;3.80;99.90
3628;DHT22;1830;49.000;12.074;2023-04-03T01:43:37;3.80;99.90
3628;DHT22;1830;49.000;12.074;2023-04-03T01:46:04;3.70;99.90
3628;DHT22;1830;49.000;12.074;2023-04-03T01:48:31;3.70;99.90
3628;DHT22;1830;49.000;12.074;2023-04-03T01:50:59;3.60;99.90
3628;DHT22;1830;49.000;12.074;2023-04-03T01:53:26;3.70;99.90
3628;DHT22;1830;49.000;12.074;2023-04-03T01:55:53;3.60;99.90
3628;DHT22;1830;49.000;12.074;2023-04-03T01:58:20;3.60;99.90
3628;DHT22;1830;49.000;12.074;2023-04-03T02:00:46;3.70;99.90
3628;DHT22;1830;49.000;12.074;2023-04-03T02:03:13;3.60;99.90
3628;DHT22;1830;49.000;12.074;2023-04-03T02:05:40;3.60;99.90
3628;DHT22;1830;49.000;12.074;2023-04-03T02:08:08;3.60;99.90
3628;DHT22;1830;49.000;12.074;2023-04-03T02:10:35;3.60;99.90
3628;DHT22;1830;49.000;12.074;2023-04-03T02:13:02;3.60;99.90
3628;DHT22;1830;49.000;12.074;2023-04-03T02:15:29;3.60;99.90
3628;DHT22;1830;49.000;12.074;2023-04-03T02:17:56;3.50;99.90
3628;DHT22;1830;49.000;12.074;2023-04-03T02:20:22;3.50;99.90
3628;DHT22;1830;49.000;12.074;2023-04-03T02:22:49;3.50;99.90
3628;DHT22;1830;49.000;12.074;2023-04-03T02:25:17;3.50;99.90
3628;DHT22;1830;49.000;12.074;2023-04-03T02:27:44;3.60;99.90
3628;DHT22;1830;49.000;12.074;2023-04-03T02:30:11;3.60;99.90
3628;DHT22;1830;49.000;12.074;2023-04-03T02:32:40;3.50;99.90
3628;DHT22;1830;49.000;12.074;2023-04-03T02:35:18;3.60;99.90
3628;DHT22;1830;49.000;12.074;2023-04-03T02:37:44;3.60;99.90
3628;DHT22;1830;49.000;12.074;2023-04-03T02:40:11;3.60;99.90
3628;DHT22;1830;49.000;12.074;2023-04-03T02:42:39;3.60;99.90
3628;DHT22;1830;49.000;12.074;2023-04-03T02:45:07;3.60;99.90
3628;DHT22;1830;49.000;12.074;2023-04-03T02:47:34;3.60;99.90
3628;DHT22;1830;49.000;12.074;2023-04-03T02:50:01;3.60;99.90
3628;DHT22;1830;49.000;12.074;2023-04-03T02:52:27;3.70;99.90
3628;DHT22;1830;49.000;12.074;2023-04-03T02:54:54;3.70;99.90
3628;DHT22;1830;49.000;12.074;2023-04-03T02:57:21;3.60;99.90
3628;DHT22;1830;49.000;12.074;2023-04-03T02:59:49;3.60;99.90
3628;DHT22;1830;49.000;12.074;2023-04-03T03:02:16;3.60;99.90
3628;DHT22;1830;49.000;12.074;2023-04-03T03:04:43;3.50;99.90
3628;DHT22;1830;49.000;12.074;2023-04-03T03:07:09;3.50;99.90
3628;DHT22;1830;49.000;12.074;2023-04-03T03:09:36;3.60;99.90
3628;DHT22;1830;49.000;12.074;2023-04-03T03:12:03;3.50;99.90
3628;DHT22;1830;49.000;12.074;2023-04-03T03:14:30;3.50;99.90
3628;DHT22;1830;49.000;12.074;2023-04-03T03:16:58;3.60;99.90
3628;DHT22;1830;49.000;12.074;2023-04-03T03:19:25;3.60;99.90
3628;DHT22;1830;49.000;12.074;2023-04-03T03:21:52;3.50;99.90
3628;DHT22;1830;49.000;12.074;2023-04-03T03:24:21;3.30;99.90
3628;DHT22;1830;49.000;12.074;2023-04-03T03:26:53;3.40;99.90
3628;DHT22;1830;49.000;12.074;2023-04-03T03:29:20;3.40;99.90
3628;DHT22;1830;49.000;12.074;2023-04-03T03:32:00;3.40;99.90
3628;DHT22;1830;49.000;12.074;2023-04-03T03:34:35;3.40;99.90
3628;DHT22;1830;49.000;12.074;2023-04-03T03:37:02;3.40;99.90
3628;DHT22;1830;49.000;12.074;2023-04-03T03:39:29;3.40;99.90
3628;DHT22;1830;49.000;12.074;2023-04-03T03:41:56;3.40;99.90
3628;DHT22;1830;49.000;12.074;2023-04-03T03:44:23;3.40;99.90
3628;DHT22;1830;49.000;12.074;2023-04-03T03:46:50;3.40;99.90
3628;DHT22;1830;49.000;12.074;2023-04-03T03:49:18;3.40;99.90
3628;DHT22;1830;49.000;12.074;2023-04-03T03:51:45;3.40;99.90
3628;DHT22;1830;49.000;12.074;2023-04-03T03:54:12;3.40;99.90
3628;DHT22;1830;49.000;12.074;2023-04-03T03:56:46;3.30;99.90
3628;DHT22;1830;49.000;12.074;2023-04-03T03:59:13;3.30;99.90
3628;DHT22;1830;49.000;12.074;2023-04-03T04:01:40;3.30;99.90
3628;DHT22;1830;49.000;12.074;2023-04-03T04:04:06;3.30;99.90
3628;DHT22;1830;49.000;12.074;2023-04-03T04:06:34;3.20;99.90
3628;DHT22;1830;49.000;12.074;2023-04-03T04:09:01;3.20;99.90
3628;DHT22;1830;49.000;12.074;2023-04-03T04:11:28;3.20;99.90
3628;DHT22;1830;49.000;12.074;2023-04-03T04:13:55;3.30;99.90
3628;DHT22;1830;49.000;12.074;2023-04-03T04:16:22;3.40;99.90
3628;DHT22;1830;49.000;12.074;2023-04-03T04:18:48;3.30;99.90
3628;DHT22;1830;49.000;12.074;2023-04-03T04:21:15;3.30;99.90
3628;DHT22;1830;49.000;12.074;2023-04-03T04:23:43;3.30;99.90
3628;DHT22;1830;49.000;12.074;2023-04-03T04:26:10;3.30;99.90
3628;DHT22;1830;49.000;12.074;2023-04-03T04:28:37;3.10;99.90
3628;DHT22;1830;49.000;12.074;2023-04-03T04:31:04;3.20;99.90
3628;DHT22;1830;49.000;12.074;2023-04-03T04:33:30;3.20;99.90
3628;DHT22;1830;49.000;12.074;2023-04-03T04:35:57;3.20;99.90
3628;DHT22;1830;49.000;12.074;2023-04-03T04:38:25;3.10;99.90
3628;DHT22;1830;49.000;12.074;2023-04-03T04:40:53;3.20;99.90
3628;DHT22;1830;49.000;12.074;2023-04-03T04:43:20;3.20;99.90
3628;DHT22;1830;49.000;12.074;2023-04-03T04:45:47;3.20;99.90
3628;DHT22;1830;49.000;12.074;2023-04-03T04:48:14;3.20;99.90
3628;DHT22;1830;49.000;12.074;2023-04-03T04:50:40;3.20;99.90
3628;DHT22;1830;49.000;12.074;2023-04-03T04:53:17;3.30;99.90
3628;DHT22;1830;49.000;12.074;2023-04-03T04:55:44;3.30;99.90
3628;DHT22;1830;49.000;12.074;2023-04-03T04:58:12;3.30;99.90
3628;DHT22;1830;49.000;12.074;2023-04-03T05:00:39;3.20;99.90
3628;DHT22;1830;49.000;12.074;2023-04-03T05:05:55;3.30;99.90
3628;DHT22;1830;49.000;12.074;2023-04-03T05:08:28;3.20;99.90
3628;DHT22;1830;49.000;12.074;2023-04-03T05:10:55;3.10;99.90
3628;DHT22;1830;49.000;12.074;2023-04-03T05:13:23;3.10;99.90
3628;DHT22;1830;49.000;12.074;2023-04-03T05:15:50;3.10;99.90
3628;DHT22;1830;49.000;12.074;2023-04-03T05:18:17;3.10;99.90
3628;DHT22;1830;49.000;12.074;2023-04-03T05:20:44;3.00;99.90
3628;DHT22;1830;49.000;12.074;2023-04-03T05:23:10;3.10;99.90
3628;DHT22;1830;49.000;12.074;2023-04-03T05:25:38;3.60;99.90
3628;DHT22;1830;49.000;12.074;2023-04-03T05:28:05;3.40;99.90
3628;DHT22;1830;49.000;12.074;2023-04-03T05:30:33;3.40;99.90
3628;DHT22;1830;49.000;12.074;2023-04-03T05:33:00;3.20;99.90
3628;DHT22;1830;49.000;12.074;2023-04-03T05:35:27;3.20;99.90
3628;DHT22;1830;49.000;12.074;2023-04-03T05:37:54;3.20;99.90
3628;DHT22;1830;49.000;12.074;2023-04-03T05:40:21;3.20;99.90
3628;DHT22;1830;49.000;12.074;2023-04-03T05:42:48;3.20;99.90
3628;DHT22;1830;49.000;12.074;2023-04-03T05:45:15;3.20;99.90
3628;DHT22;1830;49.000;12.074;2023-04-03T05:47:43;3.20;99.90
3628;DHT22;1830;49.000;12.074;2023-04-03T05:50:10;3.20;99.90
3628;DHT22;1830;49.000;12.074;2023-04-03T05:52:40;3.20;99.90
3628;DHT22;1830;49.000;12.074;2023-04-03T05:55:09;3.10;99.90
3628;DHT22;1830;49.000;12.074;2023-04-03T05:57:36;3.10;99.90
3628;DHT22;1830;49.000;12.074;2023-04-03T06:00:05;3.10;99.90
3628;DHT22;1830;49.000;12.074;2023-04-03T06:02:32;3.00;99.90
3628;DHT22;1830;49.000;12.074;2023-04-03T06:05:00;3.00;99.90
3628;DHT22;1830;49.000;12.074;2023-04-03T06:07:27;3.10;99.90
3628;DHT22;1830;49.000;12.074;2023-04-03T06:09:56;3.10;99.90
3628;DHT22;1830;49.000;12.074;2023-04-03T06:12:23;3.10;99.90
3628;DHT22;1830;49.000;12.074;2023-04-03T06:14:51;3.20;99.90
3628;DHT22;1830;49.000;12.074;2023-04-03T06:17:18;3.20;99.90
3628;DHT22;1830;49.000;12.074;2023-04-03T06:19:45;3.20;99.90
3628;DHT22;1830;49.000;12.074;2023-04-03T06:22:14;3.30;99.90
3628;DHT22;1830;49.000;12.074;2023-04-03T06:24:41;3.30;99.90
3628;DHT22;1830;49.000;12.074;2023-04-03T06:27:10;3.30;99.90
3628;DHT22;1830;49.000;12.074;2023-04-03T06:29:40;3.50;99.90
3628;DHT22;1830;49.000;12.074;2023-04-03T06:32:07;3.50;99.90
3628;DHT22;1830;49.000;12.074;2023-04-03T06:34:33;3.60;99.90
3628;DHT22;1830;49.000;12.074;2023-04-03T06:37:00;3.50;99.90
3628;DHT22;1830;49.000;12.074;2023-04-03T06:39:52;3.50;99.90
3628;DHT22;1830;49.000;12.074;2023-04-03T06:46:28;3.50;99.90
3628;DHT22;1830;49.000;12.074;2023-04-03T06:52:22;3.60;99.90
3628;DHT22;1830;49.000;12.074;2023-04-03T06:54:51;3.60;99.90
3628;DHT22;1830;49.000;12.074;2023-04-03T06:57:22;3.60;99.90
3628;DHT22;1830;49.000;12.074;2023-04-03T06:59:50;3.60;99.90
3628;DHT22;1830;49.000;12.074;2023-04-03T07:02:19;3.60;99.90
3628;DHT22;1830;49.000;12.074;2023-04-03T07:04:46;3.60;99.90
3628;DHT22;1830;49.000;12.074;2023-04-03T07:07:22;3.60;99.90
3628;DHT22;1830;49.000;12.074;2023-04-03T07:09:49;3.50;99.90
3628;DHT22;1830;49.000;12.074;2023-04-03T07:12:18;3.60;99.90
3628;DHT22;1830;49.000;12.074;2023-04-03T07:14:45;3.70;99.90
3628;DHT22;1830;49.000;12.074;2023-04-03T07:17:11;3.70;99.90
3628;DHT22;1830;49.000;12.074;2023-04-03T07:19:38;3.70;99.90
3628;DHT22;1830;49.000;12.074;2023-04-03T07:22:05;3.70;99.90
3628;DHT22;1830;49.000;12.074;2023-04-03T07:24:33;3.80;99.90
3628;DHT22;1830;49.000;12.074;2023-04-03T07:27:00;3.70;99.90
3628;DHT22;1830;49.000;12.074;2023-04-03T07:29:29;3.70;99.90
3628;DHT22;1830;49.000;12.074;2023-04-03T07:31:56;3.80;99.90
3628;DHT22;1830;49.000;12.074;2023-04-03T07:34:43;3.90;99.90
3628;DHT22;1830;49.000;12.074;2023-04-03T07:37:10;3.90;99.90
3628;DHT22;1830;49.000;12.074;2023-04-03T07:39:38;3.90;99.90
3628;DHT22;1830;49.000;12.074;2023-04-03T07:42:05;3.90;99.90
3628;DHT22;1830;49.000;12.074;2023-04-03T07:44:34;3.90;99.90
3628;DHT22;1830;49.000;12.074;2023-04-03T07:47:01;3.80;99.90
3628;DHT22;1830;49.000;12.074;2023-04-03T07:49:34;3.90;99.90
3628;DHT22;1830;49.000;12.074;2023-04-03T07:52:09;3.90;99.90
3628;DHT22;1830;49.000;12.074;2023-04-03T07:54:36;4.00;99.90
3628;DHT22;1830;49.000;12.074;2023-04-03T07:57:03;4.00;99.90
3628;DHT22;1830;49.000;12.074;2023-04-03T07:59:30;4.00;99.90
3628;DHT22;1830;49.000;12.074;2023-04-03T08:01:59;4.00;99.90
3628;DHT22;1830;49.000;12.074;2023-04-03T08:04:26;4.00;99.90
3628;DHT22;1830;49.000;12.074;2023-04-03T08:06:53;4.10;99.90
3628;DHT22;1830;49.000;12.074;2023-04-03T08:09:31;4.10;99.90
3628;DHT22;1830;49.000;12.074;2023-04-03T08:11:58;4.10;99.90
3628;DHT22;1830;49.000;12.074;2023-04-03T08:14:26;4.10;99.90
3628;DHT22;1830;49.000;12.074;2023-04-03T08:16:53;4.10;99.90
3628;DHT22;1830;49.000;12.074;2023-04-03T08:19:21;4.20;99.90
3628;DHT22;1830;49.000;12.074;2023-04-03T08:21:48;4.30;99.90
3628;DHT22;1830;49.000;12.074;2023-04-03T08:24:15;4.30;99.90
3628;DHT22;1830;49.000;12.074;2023-04-03T08:26:54;4.40;99.90
3628;DHT22;1830;49.000;12.074;2023-04-03T08:29:21;4.50;99.90
3628;DHT22;1830;49.000;12.074;2023-04-03T08:31:47;4.50;99.90
3628;DHT22;1830;49.000;12.074;2023-04-03T08:34:15;4.60;99.90
3628;DHT22;1830;49.000;12.074;2023-04-03T08:36:43;4.60;99.90
3628;DHT22;1830;49.000;12.074;2023-04-03T08:39:11;4.60;99.90
3628;DHT22;1830;49.000;12.074;2023-04-03T08:41:38;4.60;99.90
3628;DHT22;1830;49.000;12.074;2023-04-03T08:44:42;4.80;99.90
3628;DHT22;1830;49.000;12.074;2023-04-03T08:47:20;4.80;99.90
3628;DHT22;1830;49.000;12.074;2023-04-03T08:49:53;4.80;99.90
3628;DHT22;1830;49.000;12.074;2023-04-03T08:52:31;4.80;99.90
3628;DHT22;1830;49.000;12.074;2023-04-03T08:55:01;4.80;99.90
3628;DHT22;1830;49.000;12.074;2023-04-03T08:57:30;4.80;99.90
3628;DHT22;1830;49.000;12.074;2023-04-03T09:00:15;4.90;99.90
3628;DHT22;1830;49.000;12.074;2023-04-03T09:02:45;5.00;99.90
3628;DHT22;1830;49.000;12.074;2023-04-03T09:05:16;5.10;99.90
3628;DHT22;1830;49.000;12.074;2023-04-03T09:07:47;5.30;99.90
3628;DHT22;1830;49.000;12.074;2023-04-03T09:10:20;5.30;99.90
3628;DHT22;1830;49.000;12.074;2023-04-03T09:13:01;5.30;98.20
3628;DHT22;1830;49.000;12.074;2023-04-03T09:15:31;5.30;98.50
3628;DHT22;1830;49.000;12.074;2023-04-03T09:18:02;5.30;97.90
3628;DHT22;1830;49.000;12.074;2023-04-03T09:20:39;5.40;97.20
3628;DHT22;1830;49.000;12.074;2023-04-03T09:23:19;5.40;96.90
3628;DHT22;1830;49.000;12.074;2023-04-03T09:25:49;5.40;96.60
3628;DHT22;1830;49.000;12.074;2023-04-03T09:28:17;5.40;96.20
3628;DHT22;1830;49.000;12.074;2023-04-03T09:30:44;5.40;95.30
3628;DHT22;1830;49.000;12.074;2023-04-03T09:33:12;5.40;95.70
3628;DHT22;1830;49.000;12.074;2023-04-03T09:35:41;5.30;95.80
3628;DHT22;1830;49.000;12.074;2023-04-03T09:38:18;5.30;95.60
3628;DHT22;1830;49.000;12.074;2023-04-03T09:40:48;5.30;95.20
3628;DHT22;1830;49.000;12.074;2023-04-03T09:43:28;5.30;94.70
3628;DHT22;1830;49.000;12.074;2023-04-03T09:45:56;5.20;94.30
3628;DHT22;1830;49.000;12.074;2023-04-03T09:48:24;5.00;92.80
3628;DHT22;1830;49.000;12.074;2023-04-03T09:51:09;5.00;92.80
3628;DHT22;1830;49.000;12.074;2023-04-03T09:53:44;5.20;93.50
3628;DHT22;1830;49.000;12.074;2023-04-03T09:56:28;5.40;93.30
3628;DHT22;1830;49.000;12.074;2023-04-03T09:59:14;5.50;91.70
3628;DHT22;1830;49.000;12.074;2023-04-03T10:01:58;5.50;90.60
3628;DHT22;1830;49.000;12.074;2023-04-03T10:04:43;5.50;90.30
3628;DHT22;1830;49.000;12.074;2023-04-03T10:07:29;5.50;90.80
3628;DHT22;1830;49.000;12.074;2023-04-03T10:09:58;5.60;91.00
3628;DHT22;1830;49.000;12.074;2023-04-03T10:12:27;5.60;91.50
3628;DHT22;1830;49.000;12.074;2023-04-03T10:14:56;5.70;90.50
3628;DHT22;1830;49.000;12.074;2023-04-03T10:17:45;5.70;90.60
3628;DHT22;1830;49.000;12.074;2023-04-03T10:20:43;5.70;90.20
3628;DHT22;1830;49.000;12.074;2023-04-03T10:23:19;5.80;91.20
3628;DHT22;1830;49.000;12.074;2023-04-03T10:25:59;6.00;90.70
3628;DHT22;1830;49.000;12.074;2023-04-03T10:28:35;6.00;88.40
3628;DHT22;1830;49.000;12.074;2023-04-03T10:31:08;6.20;89.10
3628;DHT22;1830;49.000;12.074;2023-04-03T10:33:52;6.20;88.30
3628;DHT22;1830;49.000;12.074;2023-04-03T10:36:37;6.20;84.40
3628;DHT22;1830;49.000;12.074;2023-04-03T10:39:31;6.00;86.70
3628;DHT22;1830;49.000;12.074;2023-04-03T10:42:09;6.00;88.60
3628;DHT22;1830;49.000;12.074;2023-04-03T10:45:03;5.80;86.50
3628;DHT22;1830;49.000;12.074;2023-04-03T10:47:42;5.90;86.90
3628;DHT22;1830;49.000;12.074;2023-04-03T10:50:27;5.90;86.30
3628;DHT22;1830;49.000;12.074;2023-04-03T10:53:00;6.00;85.30
3628;DHT22;1830;49.000;12.074;2023-04-03T10:55:34;6.10;85.80
3628;DHT22;1830;49.000;12.074;2023-04-03T10:58:09;6.20;84.80
3628;DHT22;1830;49.000;12.074;2023-04-03T11:00:43;6.20;82.50
3628;DHT22;1830;49.000;12.074;2023-04-03T11:03:14;6.20;82.00
3628;DHT22;1830;49.000;12.074;2023-04-03T11:05:44;6.40;83.00
3628;DHT22;1830;49.000;12.074;2023-04-03T11:08:18;6.40;83.90
3628;DHT22;1830;49.000;12.074;2023-04-03T11:10:49;6.40;80.40
3628;DHT22;1830;49.000;12.074;2023-04-03T11:13:21;6.10;78.90
3628;DHT22;1830;49.000;12.074;2023-04-03T11:15:49;6.10;80.30
3628;DHT22;1830;49.000;12.074;2023-04-03T11:18:20;6.10;80.90
3628;DHT22;1830;49.000;12.074;2023-04-03T11:20:57;6.10;81.10
3628;DHT22;1830;49.000;12.074;2023-04-03T11:23:27;6.20;78.70
3628;DHT22;1830;49.000;12.074;2023-04-03T11:26:04;6.10;79.20
3628;DHT22;1830;49.000;12.074;2023-04-03T11:28:36;6.20;80.20
3628;DHT22;1830;49.000;12.074;2023-04-03T11:31:12;6.50;79.50
3628;DHT22;1830;49.000;12.074;2023-04-03T11:33:47;6.40;80.00
3628;DHT22;1830;49.000;12.074;2023-04-03T11:36:19;6.30;81.90
3628;DHT22;1830;49.000;12.074;2023-04-03T11:38:49;6.20;82.30
3628;DHT22;1830;49.000;12.074;2023-04-03T11:41:25;6.30;81.50
3628;DHT22;1830;49.000;12.074;2023-04-03T11:43:59;6.30;81.00
3628;DHT22;1830;49.000;12.074;2023-04-03T11:46:52;6.40;82.00
3628;DHT22;1830;49.000;12.074;2023-04-03T11:49:51;6.30;79.30
3628;DHT22;1830;49.000;12.074;2023-04-03T11:58:27;7.00;76.30
3628;DHT22;1830;49.000;12.074;2023-04-03T12:01:01;7.20;75.60
3628;DHT22;1830;49.000;12.074;2023-04-03T12:03:57;7.40;74.40
3628;DHT22;1830;49.000;12.074;2023-04-03T12:10:01;7.40;73.40
3628;DHT22;1830;49.000;12.074;2023-04-03T12:12:31;7.30;73.70
3628;DHT22;1830;49.000;12.074;2023-04-03T12:15:19;7.30;73.70
3628;DHT22;1830;49.000;12.074;2023-04-03T12:17:49;7.50;73.90
3628;DHT22;1830;49.000;12.074;2023-04-03T12:20:55;7.60;76.10
3628;DHT22;1830;49.000;12.074;2023-04-03T12:23:30;7.70;75.40
3628;DHT22;1830;49.000;12.074;2023-04-03T12:26:19;7.80;75.30
3628;DHT22;1830;49.000;12.074;2023-04-03T12:28:49;7.80;74.50
3628;DHT22;1830;49.000;12.074;2023-04-03T12:31:19;7.80;72.10
3628;DHT22;1830;49.000;12.074;2023-04-03T12:34:05;7.80;71.50
3628;DHT22;1830;49.000;12.074;2023-04-03T12:36:45;7.80;72.40
3628;DHT22;1830;49.000;12.074;2023-04-03T12:39:38;7.90;71.20
3628;DHT22;1830;49.000;12.074;2023-04-03T12:42:16;7.80;69.50
3628;DHT22;1830;49.000;12.074;2023-04-03T12:44:53;8.00;69.60
3628;DHT22;1830;49.000;12.074;2023-04-03T12:47:28;8.00;70.10
3628;DHT22;1830;49.000;12.074;2023-04-03T12:49:59;8.00;71.20
3628;DHT22;1830;49.000;12.074;2023-04-03T12:52:37;7.90;70.70
3628;DHT22;1830;49.000;12.074;2023-04-03T12:55:13;8.10;72.20
3628;DHT22;1830;49.000;12.074;2023-04-03T12:57:40;8.00;70.80
3628;DHT22;1830;49.000;12.074;2023-04-03T13:00:29;8.00;71.40
3628;DHT22;1830;49.000;12.074;2023-04-03T13:02:58;8.20;72.90
3628;DHT22;1830;49.000;12.074;2023-04-03T13:05:27;8.10;71.20
3628;DHT22;1830;49.000;12.074;2023-04-03T13:07:59;8.10;71.40
3628;DHT22;1830;49.000;12.074;2023-04-03T13:10:27;8.30;73.20
3628;DHT22;1830;49.000;12.074;2023-04-03T13:12:55;8.00;72.00
3628;DHT22;1830;49.000;12.074;2023-04-03T13:15:25;8.00;71.20
3628;DHT22;1830;49.000;12.074;2023-04-03T13:17:53;7.80;71.20
3628;DHT22;1830;49.000;12.074;2023-04-03T13:20:23;7.50;71.00
3628;DHT22;1830;49.000;12.074;2023-04-03T13:22:56;7.30;72.20
3628;DHT22;1830;49.000;12.074;2023-04-03T13:25:25;7.50;71.00
3628;DHT22;1830;49.000;12.074;2023-04-03T13:27:54;7.80;71.20
3628;DHT22;1830;49.000;12.074;2023-04-03T13:30:26;7.90;69.70
3628;DHT22;1830;49.000;12.074;2023-04-03T13:32:54;8.00;69.10
3628;DHT22;1830;49.000;12.074;2023-04-03T13:35:34;8.20;69.40
3628;DHT22;1830;49.000;12.074;2023-04-03T13:38:06;8.40;71.60
3628;DHT22;1830;49.000;12.074;2023-04-03T13:40:33;8.40;70.70
3628;DHT22;1830;49.000;12.074;2023-04-03T13:43:03;8.10;69.60
3628;DHT22;1830;49.000;12.074;2023-04-03T13:45:31;7.90;69.70
3628;DHT22;1830;49.000;12.074;2023-04-03T13:48:10;8.50;71.60
3628;DHT22;1830;49.000;12.074;2023-04-03T13:50:55;8.60;70.80
3628;DHT22;1830;49.000;12.074;2023-04-03T13:53:24;8.40;70.90
3628;DHT22;1830;49.000;12.074;2023-04-03T13:55:55;8.60;70.80
3628;DHT22;1830;49.000;12.074;2023-04-03T13:58:30;8.50;68.80
3628;DHT22;1830;49.000;12.074;2023-04-03T14:01:08;8.20;68.00
3628;DHT22;1830;49.000;12.074;2023-04-03T14:03:42;8.60;68.50
3628;DHT22;1830;49.000;12.074;2023-04-03T14:06:11;8.60;69.20
3628;DHT22;1830;49.000;12.074;2023-04-03T14:08:40;8.80;69.20
3628;DHT22;1830;49.000;12.074;2023-04-03T14:11:11;8.70;68.90
3628;DHT22;1830;49.000;12.074;2023-04-03T14:13:39;8.40;69.40
3628;DHT22;1830;49.000;12.074;2023-04-03T14:16:06;8.20;70.20
3628;DHT22;1830;49.000;12.074;2023-04-03T14:18:33;7.80;69.80
3628;DHT22;1830;49.000;12.074;2023-04-03T14:21:00;7.90;70.90
3628;DHT22;1830;49.000;12.074;2023-04-03T14:23:27;7.80;69.30
3628;DHT22;1830;49.000;12.074;2023-04-03T14:25:55;8.10;69.40
3628;DHT22;1830;49.000;12.074;2023-04-03T14:28:22;8.40;70.70
3628;DHT22;1830;49.000;12.074;2023-04-03T14:30:50;8.60;71.40
3628;DHT22;1830;49.000;12.074;2023-04-03T14:33:18;8.40;68.60
3628;DHT22;1830;49.000;12.074;2023-04-03T14:35:47;8.20;67.80
3628;DHT22;1830;49.000;12.074;2023-04-03T14:38:24;8.00;68.50
3628;DHT22;1830;49.000;12.074;2023-04-03T14:40:51;8.30;68.60
3628;DHT22;1830;49.000;12.074;2023-04-03T14:43:20;8.60;67.70
3628;DHT22;1830;49.000;12.074;2023-04-03T14:45:48;8.50;67.30
3628;DHT22;1830;49.000;12.074;2023-04-03T14:48:18;8.60;69.10
3628;DHT22;1830;49.000;12.074;2023-04-03T14:50:46;8.60;68.80
3628;DHT22;1830;49.000;12.074;2023-04-03T14:53:13;8.70;68.80
3628;DHT22;1830;49.000;12.074;2023-04-03T14:55:43;8.80;69.40
3628;DHT22;1830;49.000;12.074;2023-04-03T14:58:13;8.80;69.40
3628;DHT22;1830;49.000;12.074;2023-04-03T15:00:46;8.80;69.20
3628;DHT22;1830;49.000;12.074;2023-04-03T15:03:14;8.60;68.90
3628;DHT22;1830;49.000;12.074;2023-04-03T15:05:42;8.20;68.90
3628;DHT22;1830;49.000;12.074;2023-04-03T15:08:18;7.90;68.60
3628;DHT22;1830;49.000;12.074;2023-04-03T15:10:47;7.80;69.30
3628;DHT22;1830;49.000;12.074;2023-04-03T15:13:14;8.10;70.20
3628;DHT22;1830;49.000;12.074;2023-04-03T15:15:41;8.10;68.80
3628;DHT22;1830;49.000;12.074;2023-04-03T15:18:15;8.20;68.60
3628;DHT22;1830;49.000;12.074;2023-04-03T15:20:43;8.30;68.90
3628;DHT22;1830;49.000;12.074;2023-04-03T15:23:12;8.40;68.30
3628;DHT22;1830;49.000;12.074;2023-04-03T15:25:42;8.30;67.70
3628;DHT22;1830;49.000;12.074;2023-04-03T15:28:15;8.40;69.10
3628;DHT22;1830;49.000;12.074;2023-04-03T15:30:44;8.20;67.80
3628;DHT22;1830;49.000;12.074;2023-04-03T15:33:12;7.90;67.00
3628;DHT22;1830;49.000;12.074;2023-04-03T15:35:39;7.80;67.80
3628;DHT22;1830;49.000;12.074;2023-04-03T15:38:06;7.70;69.00
3628;DHT22;1830;49.000;12.074;2023-04-03T15:40:32;7.50;68.90
3628;DHT22;1830;49.000;12.074;2023-04-03T15:42:59;7.60;68.30
3628;DHT22;1830;49.000;12.074;2023-04-03T15:45:28;7.80;69.30
3628;DHT22;1830;49.000;12.074;2023-04-03T15:47:55;7.80;68.30
3628;DHT22;1830;49.000;12.074;2023-04-03T15:50:24;7.70;67.60
3628;DHT22;1830;49.000;12.074;2023-04-03T15:52:51;7.60;67.40
3628;DHT22;1830;49.000;12.074;2023-04-03T15:55:20;7.50;67.90
3628;DHT22;1830;49.000;12.074;2023-04-03T15:57:47;7.20;68.20
3628;DHT22;1830;49.000;12.074;2023-04-03T16:00:14;6.90;68.90
3628;DHT22;1830;49.000;12.074;2023-04-03T16:02:41;6.80;70.10
3628;DHT22;1830;49.000;12.074;2023-04-03T16:05:09;6.90;70.30
3628;DHT22;1830;49.000;12.074;2023-04-03T16:07:38;7.20;71.60
3628;DHT22;1830;49.000;12.074;2023-04-03T16:10:06;7.10;70.30
3628;DHT22;1830;49.000;12.074;2023-04-03T16:12:35;7.20;70.30
3628;DHT22;1830;49.000;12.074;2023-04-03T16:15:03;7.10;68.90
3628;DHT22;1830;49.000;12.074;2023-04-03T16:17:31;6.80;68.30
3628;DHT22;1830;49.000;12.074;2023-04-03T16:19:58;6.80;70.30
3628;DHT22;1830;49.000;12.074;2023-04-03T16:22:27;6.80;71.80
3628;DHT22;1830;49.000;12.074;2023-04-03T16:24:56;6.60;72.20
3628;DHT22;1830;49.000;12.074;2023-04-03T16:27:23;6.60;73.00
3628;DHT22;1830;49.000;12.074;2023-04-03T16:29:53;6.40;73.50
3628;DHT22;1830;49.000;12.074;2023-04-03T16:32:20;6.30;72.80
3628;DHT22;1830;49.000;12.074;2023-04-03T16:34:47;6.10;72.20
3628;DHT22;1830;49.000;12.074;2023-04-03T16:37:14;6.10;72.90
3628;DHT22;1830;49.000;12.074;2023-04-03T16:39:41;6.00;72.40
3628;DHT22;1830;49.000;12.074;2023-04-03T16:42:09;5.80;71.80
3628;DHT22;1830;49.000;12.074;2023-04-03T16:44:36;5.60;72.30
3628;DHT22;1830;49.000;12.074;2023-04-03T16:47:05;5.40;72.80
3628;DHT22;1830;49.000;12.074;2023-04-03T16:49:33;5.40;73.30